Time;durP1;ratioP1;P1;durP2;ratioP2;P2;SDS_P1;SDS_P2;PMS_P1;PMS_P2;Temp;Humidity;BMP_temperature;BMP_pressure;BME280_temperature;BME280_humidity;BME280_pressure;Samples;Min_cycle;Max_cycle;Signal;HPM_P1;HPM_P2
2022/11/24 00:00:52;;;;;;;3.25;1.42;;;8.80;99.90;;;;;;4950702;28;20403;-71
2022/11/24 00:03:24;;;;;;;6.90;1.90;;;8.70;99.90;;;;;;4976768;28;20109;-71
2022/11/24 00:05:52;;;;;;;4.10;1.10;;;8.60;99.90;;;;;;4980733;28;20026;-71
2022/11/24 00:08:24;;;;;;;6.82;2.25;;;8.60;99.90;;;;;;4978902;28;20045;-71
2022/11/24 00:10:50;;;;;;;10.07;1.80;;;8.70;99.90;;;;;;4976811;28;20097;-71
2022/11/24 00:13:28;;;;;;;4.32;1.88;;;8.70;99.90;;;;;;4984469;28;20143;-72
2022/11/24 00:16:29;;;;;;;3.55;1.17;;;8.70;99.90;;;;;;4979852;28;20486;-71
2022/11/24 00:19:35;;;;;;;5.38;1.75;;;8.80;99.90;;;;;;4989761;28;20077;-71
2022/11/24 00:22:10;;;;;;;8.02;1.38;;;8.70;99.90;;;;;;4997180;28;20474;-71
2022/11/24 00:24:45;;;;;;;11.68;1.38;;;8.70;99.90;;;;;;4982737;28;20031;-72
2022/11/24 00:27:13;;;;;;;4.38;1.15;;;8.70;99.90;;;;;;4972482;28;20054;-71
2022/11/24 00:30:48;;;;;;;2.17;0.90;;;8.70;99.90;;;;;;4967538;28;20162;-71
2022/11/24 00:33:22;;;;;;;7.97;1.80;;;8.70;99.90;;;;;;4977025;28;20046;-71
2022/11/24 00:36:17;;;;;;;3.15;1.38;;;8.70;99.90;;;;;;4980493;28;20027;-71
2022/11/24 00:39:16;;;;;;;8.38;0.95;;;8.70;99.90;;;;;;4988187;28;20039;-71
2022/11/24 00:41:50;;;;;;;14.35;1.50;;;8.70;99.90;;;;;;4974345;28;20490;-71
2022/11/24 00:44:16;;;;;;;13.30;0.82;;;8.70;99.90;;;;;;4985795;28;20223;-71
2022/11/24 00:46:47;;;;;;;15.57;2.13;;;8.70;99.90;;;;;;4976814;28;20042;-71
2022/11/24 00:49:35;;;;;;;7.95;0.80;;;8.70;99.90;;;;;;4986453;28;20113;-72
2022/11/24 00:52:21;;;;;;;2.15;0.88;;;8.70;99.90;;;;;;4979538;28;20498;-71
2022/11/24 00:54:47;;;;;;;7.63;1.00;;;8.60;99.90;;;;;;4956124;28;20546;-71
2022/11/24 00:58:00;;;;;;;3.75;1.30;;;8.50;99.90;;;;;;4983657;28;20133;-71
2022/11/24 01:01:30;;;;;;;8.73;2.17;;;8.30;99.90;;;;;;4910135;29;20136;-71
2022/11/24 01:04:00;;;;;;;1.80;1.25;;;8.20;99.90;;;;;;4838117;29;20054;-71
2022/11/24 01:06:34;;;;;;;10.70;1.30;;;8.20;99.90;;;;;;4828910;29;20041;-71
2022/11/24 01:09:00;;;;;;;3.83;0.77;;;8.10;99.90;;;;;;4839516;29;20573;-70
2022/11/24 01:15:08;;;;;;;1.20;0.77;;;8.00;99.90;;;;;;4805917;29;20187;-71
2022/11/24 01:17:43;;;;;;;18.10;1.02;;;7.90;99.90;;;;;;4775414;30;20047;-71
2022/11/24 01:20:12;;;;;;;6.47;2.05;;;7.90;99.90;;;;;;4824933;29;20082;-71
2022/11/24 01:23:02;;;;;;;1.40;0.88;;;7.90;99.90;;;;;;4847683;29;20041;-71
2022/11/24 01:25:34;;;;;;;3.60;0.82;;;7.90;99.90;;;;;;4845677;29;20037;-70
2022/11/24 01:27:59;;;;;;;4.13;0.68;;;7.80;99.90;;;;;;4834787;29;20049;-71
2022/11/24 01:30:31;;;;;;;7.40;1.13;;;7.90;99.90;;;;;;4852739;29;20037;-71
2022/11/24 01:33:34;;;;;;;11.77;1.33;;;7.90;99.90;;;;;;4849580;29;20029;-71
2022/11/24 01:36:09;;;;;;;4.72;0.90;;;7.90;99.90;;;;;;4905260;29;20060;-71
2022/11/24 01:39:15;;;;;;;0.52;0.50;;;7.90;99.90;;;;;;4929113;29;20040;-71
2022/11/24 01:41:44;;;;;;;4.18;1.35;;;8.00;99.90;;;;;;4978835;28;20097;-71
2022/11/24 01:44:30;;;;;;;11.48;2.30;;;8.20;99.90;;;;;;4991212;28;20391;-71
2022/11/24 01:47:15;;;;;;;2.92;1.25;;;8.40;99.90;;;;;;4981591;28;20031;-71
2022/11/24 01:49:53;;;;;;;3.05;1.50;;;8.50;99.90;;;;;;4990388;28;20508;-71
2022/11/24 01:53:07;;;;;;;9.40;2.03;;;8.60;99.90;;;;;;4985390;28;20035;-71
2022/11/24 01:55:44;;;;;;;2.67;1.02;;;8.70;99.90;;;;;;4980773;28;20046;-71
2022/11/24 01:58:37;;;;;;;4.68;1.40;;;8.80;99.90;;;;;;4961851;28;20054;-71
2022/11/24 02:01:17;;;;;;;8.13;1.83;;;8.90;99.90;;;;;;4963316;28;20145;-71
2022/11/24 02:03:50;;;;;;;8.38;0.57;;;9.00;99.90;;;;;;4967960;28;20382;-71
2022/11/24 02:06:38;;;;;;;9.07;1.27;;;9.00;99.90;;;;;;4949148;28;20495;-70
2022/11/24 02:09:53;;;;;;;10.63;1.65;;;9.00;99.90;;;;;;4942535;28;20038;-71
2022/11/24 02:12:20;;;;;;;13.55;1.17;;;9.10;99.90;;;;;;4976623;28;20116;-71
2022/11/24 02:15:21;;;;;;;3.60;0.82;;;9.20;99.90;;;;;;4964247;28;20035;-71
2022/11/24 02:17:53;;;;;;;5.00;1.23;;;9.20;99.90;;;;;;4965547;28;20039;-70
2022/11/24 02:20:19;;;;;;;2.22;1.00;;;9.20;99.90;;;;;;5011413;23;20513;-74
2022/11/24 02:23:51;;;;;;;7.20;1.70;;;9.20;99.90;;;;;;5009384;28;20366;-73
2022/11/24 02:26:48;;;;;;;4.20;0.80;;;9.10;99.90;;;;;;4933914;29;20470;-73
2022/11/24 02:29:26;;;;;;;2.90;1.48;;;9.00;99.90;;;;;;4923203;29;20031;-74
2022/11/24 02:32:17;;;;;;;12.18;2.70;;;8.90;99.90;;;;;;4943272;29;20031;-74
2022/11/24 02:34:43;;;;;;;5.70;0.57;;;8.90;99.90;;;;;;4945898;28;20043;-74
2022/11/24 02:37:14;;;;;;;9.93;0.88;;;8.90;99.90;;;;;;4971542;28;20042;-74
2022/11/24 02:39:52;;;;;;;4.15;1.27;;;8.90;99.90;;;;;;4984549;28;20154;-74
2022/11/24 02:42:23;;;;;;;2.90;0.90;;;8.80;99.90;;;;;;4968008;28;20134;-72
2022/11/24 02:45:11;;;;;;;13.52;1.27;;;8.80;99.90;;;;;;4978607;28;20038;-73
2022/11/24 02:47:40;;;;;;;2.47;0.90;;;8.70;99.90;;;;;;4987559;28;20038;-73
2022/11/24 02:50:06;;;;;;;6.00;0.85;;;8.70;99.90;;;;;;4983782;28;20402;-74
2022/11/24 02:52:41;;;;;;;8.77;1.05;;;8.60;99.90;;;;;;4987279;28;20040;-73
2022/11/24 02:55:12;;;;;;;6.40;1.63;;;8.60;99.90;;;;;;4983729;28;20026;-73
2022/11/24 02:57:38;;;;;;;3.15;1.10;;;8.50;99.90;;;;;;4988431;28;20034;-73
2022/11/24 03:00:29;;;;;;;24.63;2.90;;;8.50;99.90;;;;;;4982818;28;20410;-73
2022/11/24 03:03:51;;;;;;;3.53;1.23;;;8.50;99.90;;;;;;4990374;28;20042;-74
2022/11/24 03:06:57;;;;;;;15.35;1.95;;;8.50;99.90;;;;;;4905982;29;20032;-74
2022/11/24 03:09:27;;;;;;;0.98;0.47;;;8.50;99.90;;;;;;4903212;29;20044;-74
2022/11/24 03:12:23;;;;;;;6.22;1.00;;;8.40;99.90;;;;;;4911063;29;20087;-74
2022/11/24 03:15:08;;;;;;;5.32;1.60;;;8.40;99.90;;;;;;4912054;29;20736;-74
2022/11/24 03:17:49;;;;;;;12.27;1.73;;;8.40;99.90;;;;;;4892609;29;20467;-74
2022/11/24 03:20:16;;;;;;;5.38;1.63;;;8.40;99.90;;;;;;4911811;29;20028;-74
2022/11/24 03:22:44;;;;;;;2.63;1.15;;;8.50;99.90;;;;;;4911922;29;20028;-74
2022/11/24 03:25:46;;;;;;;6.90;1.30;;;8.50;99.90;;;;;;4911449;29;20075;-74
2022/11/24 03:28:18;;;;;;;9.63;2.35;;;8.50;99.90;;;;;;4893346;29;20115;-74
2022/11/24 03:31:22;;;;;;;11.18;1.88;;;8.60;99.90;;;;;;4911895;29;20048;-74
2022/11/24 03:33:57;;;;;;;9.63;2.15;;;8.60;99.90;;;;;;4833846;29;20477;-74
2022/11/24 03:37:13;;;;;;;8.05;1.35;;;8.50;99.90;;;;;;4861902;29;20047;-74
2022/11/24 03:39:42;;;;;;;10.75;2.13;;;8.50;99.90;;;;;;4851459;29;20045;-74
2022/11/24 03:42:54;;;;;;;6.63;0.73;;;8.50;99.90;;;;;;4848610;29;20044;-74
2022/11/24 03:45:22;;;;;;;12.25;1.90;;;8.60;99.90;;;;;;4846718;29;20587;-74
2022/11/24 03:48:09;;;;;;;12.43;1.88;;;8.50;99.90;;;;;;4844735;29;20053;-74
2022/11/24 03:50:35;;;;;;;16.02;0.95;;;8.50;99.90;;;;;;4852454;29;20049;-74
2022/11/24 03:53:01;;;;;;;6.05;1.30;;;8.50;99.90;;;;;;4845422;29;20061;-74
2022/11/24 03:55:58;;;;;;;3.40;1.77;;;8.40;99.90;;;;;;4851071;29;20072;-74
2022/11/24 03:58:24;;;;;;;13.68;3.05;;;8.30;99.90;;;;;;4839729;29;20065;-74
2022/11/24 04:01:33;;;;;;;3.33;1.52;;;8.30;99.90;;;;;;4853144;29;20034;-74
2022/11/24 04:04:29;;;;;;;3.15;1.45;;;8.30;99.90;;;;;;4829301;29;20075;-74
2022/11/24 04:07:26;;;;;;;9.32;2.00;;;8.40;99.90;;;;;;4834813;29;20033;-74
2022/11/24 04:09:52;;;;;;;2.28;0.88;;;8.30;99.90;;;;;;4870754;29;20171;-73
2022/11/24 04:15:18;;;;;;;5.93;1.05;;;8.40;99.90;;;;;;4938557;28;20043;-73
2022/11/24 04:18:11;;;;;;;6.55;1.30;;;8.40;99.90;;;;;;4979020;28;20524;-73
2022/11/24 04:21:53;;;;;;;6.40;1.80;;;8.50;99.90;;;;;;4913121;29;20044;-73
2022/11/24 04:24:24;;;;;;;10.27;2.50;;;8.50;99.90;;;;;;4881172;29;20528;-73
2022/11/24 04:27:14;;;;;;;5.97;1.48;;;8.50;99.90;;;;;;4875266;29;20045;-73
2022/11/24 04:29:45;;;;;;;4.78;1.17;;;8.50;99.90;;;;;;4887318;29;20044;-73
2022/11/24 04:33:24;;;;;;;9.85;1.73;;;8.50;99.90;;;;;;4888853;29;20744;-73
2022/11/24 04:35:55;;;;;;;11.10;2.25;;;8.50;99.90;;;;;;4819182;29;20058;-72
2022/11/24 04:38:20;;;;;;;12.70;1.45;;;8.50;99.90;;;;;;4811179;29;20104;-73
2022/11/24 04:41:04;;;;;;;4.07;1.77;;;8.50;99.90;;;;;;4819228;29;20042;-73
2022/11/24 04:43:31;;;;;;;8.00;2.70;;;8.60;99.90;;;;;;4807098;29;20452;-74
2022/11/24 04:46:00;;;;;;;4.03;2.35;;;8.60;99.90;;;;;;4817934;29;20042;-73
2022/11/24 04:48:50;;;;;;;9.38;1.65;;;8.60;99.90;;;;;;4806609;29;20129;-73
2022/11/24 04:51:38;;;;;;;3.42;2.35;;;8.60;99.90;;;;;;4784796;30;20047;-73
2022/11/24 04:54:28;;;;;;;15.05;1.48;;;8.60;99.90;;;;;;4803411;29;20043;-74
2022/11/24 04:57:25;;;;;;;3.95;0.98;;;8.70;99.90;;;;;;4809829;29;20136;-74
2022/11/24 04:59:56;;;;;;;2.50;1.30;;;8.80;99.90;;;;;;4877049;29;20685;-74
2022/11/24 05:02:28;;;;;;;4.85;1.70;;;8.80;99.90;;;;;;4907006;29;20136;-73
2022/11/24 05:05:13;;;;;;;4.22;1.67;;;8.80;99.90;;;;;;4906432;29;20568;-74
2022/11/24 05:07:39;;;;;;;12.82;2.60;;;8.80;99.90;;;;;;4906991;29;20460;-74
2022/11/24 05:12:58;;;;;;;2.50;0.93;;;8.90;99.90;;;;;;4974627;28;20053;-74
2022/11/24 05:15:40;;;;;;;10.32;1.10;;;8.80;99.90;;;;;;4977204;28;20038;-73
2022/11/24 05:18:18;;;;;;;3.42;1.15;;;8.80;99.90;;;;;;4980346;28;20023;-73
2022/11/24 05:20:50;;;;;;;10.32;1.67;;;8.80;99.90;;;;;;4991294;28;20034;-74
2022/11/24 05:23:16;;;;;;;17.33;1.58;;;8.90;99.90;;;;;;4975675;28;20509;-74
2022/11/24 05:26:01;;;;;;;2.72;1.15;;;8.90;99.90;;;;;;4990495;28;20018;-74
2022/11/24 05:28:54;;;;;;;10.30;1.25;;;8.90;99.90;;;;;;4977356;28;20129;-74
2022/11/24 05:31:23;;;;;;;14.00;2.33;;;9.00;99.90;;;;;;4959825;28;20049;-74
2022/11/24 05:34:04;;;;;;;1.90;0.88;;;9.00;99.90;;;;;;4945548;28;20051;-73
2022/11/24 05:37:12;;;;;;;5.55;1.65;;;9.00;99.90;;;;;;4989921;28;20038;-73
2022/11/24 05:43:13;;;;;;;3.70;1.45;;;8.90;99.90;;;;;;5638109;23;20050;-70
2022/11/24 05:45:39;;;;;;;8.27;3.35;;;8.90;99.90;;;;;;5004199;28;20073;-70
2022/11/24 05:48:09;;;;;;;9.20;2.85;;;8.90;99.90;;;;;;4995539;28;20080;-69
2022/11/24 05:50:35;;;;;;;10.25;1.17;;;8.90;99.90;;;;;;4999231;28;20032;-69
2022/11/24 05:53:06;;;;;;;3.75;1.25;;;8.90;99.90;;;;;;5002614;28;20034;-69
2022/11/24 05:55:32;;;;;;;;;;;8.80;99.90;;;;;;5009288;28;20032;-69
2022/11/24 05:58:00;;;;;;;10.65;1.85;;;8.80;99.90;;;;;;5008636;28;20273;-71
2022/11/24 06:00:28;;;;;;;5.30;1.15;;;8.70;99.90;;;;;;5009123;28;20037;-71
2022/11/24 06:02:53;;;;;;;4.82;1.75;;;8.70;99.90;;;;;;5010129;28;20040;-70
2022/11/24 06:05:19;;;;;;;3.78;0.93;;;8.70;99.90;;;;;;5003019;28;20401;-71
2022/11/24 06:07:45;;;;;;;1.75;1.08;;;8.60;99.90;;;;;;5005443;28;20049;-70
2022/11/24 06:10:10;;;;;;;6.00;1.67;;;8.60;99.90;;;;;;5004052;28;20026;-71
2022/11/24 06:12:36;;;;;;;10.63;2.85;;;8.60;99.90;;;;;;5004876;28;20037;-72
2022/11/24 06:15:02;;;;;;;6.30;1.13;;;8.60;99.90;;;;;;5003590;28;20041;-72
2022/11/24 06:17:28;;;;;;;2.25;1.20;;;8.60;99.90;;;;;;4987685;28;20048;-70
2022/11/24 06:19:54;;;;;;;7.30;1.80;;;8.60;99.90;;;;;;5004368;28;20421;-73
2022/11/24 06:22:19;;;;;;;5.55;1.65;;;8.60;99.90;;;;;;5004506;28;20038;-72
2022/11/24 06:24:46;;;;;;;12.55;2.67;;;8.60;99.90;;;;;;5002327;28;20064;-74
2022/11/24 06:27:12;;;;;;;8.88;1.27;;;8.60;99.90;;;;;;5014422;28;20053;-75
2022/11/24 06:29:38;;;;;;;4.70;1.90;;;8.60;99.90;;;;;;5017855;28;20030;-74
2022/11/24 06:32:04;;;;;;;6.32;1.33;;;8.60;99.90;;;;;;5004392;28;20029;-73
2022/11/24 06:34:30;;;;;;;10.50;2.15;;;8.60;99.90;;;;;;5018218;28;20177;-71
2022/11/24 06:36:56;;;;;;;14.05;1.42;;;8.40;99.90;;;;;;5004677;28;20121;-73
2022/11/24 06:39:21;;;;;;;11.85;1.40;;;8.50;99.90;;;;;;5003659;28;20041;-73
2022/11/24 06:41:51;;;;;;;9.30;1.42;;;8.50;99.90;;;;;;5003536;28;20117;-73
2022/11/24 06:44:17;;;;;;;6.35;2.15;;;8.50;99.90;;;;;;5004973;28;20056;-72
2022/11/24 06:46:44;;;;;;;8.20;1.27;;;8.50;99.90;;;;;;5000752;28;20033;-72
2022/11/24 06:49:12;;;;;;;4.88;0.90;;;8.50;99.90;;;;;;4995160;28;20022;-71
2022/11/24 06:51:38;;;;;;;11.45;1.23;;;8.40;99.90;;;;;;5005481;28;20041;-74
2022/11/24 06:54:08;;;;;;;10.32;2.72;;;8.50;99.90;;;;;;4991173;28;20030;-72
2022/11/24 06:56:34;;;;;;;12.20;1.00;;;8.40;99.90;;;;;;5002574;28;20125;-72
2022/11/24 06:59:03;;;;;;;2.45;1.38;;;8.50;99.90;;;;;;5005571;28;20044;-73
2022/11/24 07:01:29;;;;;;;2.08;1.00;;;8.50;99.90;;;;;;4999598;28;20132;-72
2022/11/24 07:03:56;;;;;;;6.15;1.27;;;8.40;99.90;;;;;;4999135;28;20022;-71
2022/11/24 07:06:24;;;;;;;12.32;1.70;;;8.40;99.90;;;;;;5006935;28;20042;-74
2022/11/24 07:08:51;;;;;;;2.50;1.08;;;8.40;99.90;;;;;;4999237;28;20492;-73
2022/11/24 07:11:22;;;;;;;5.55;1.42;;;8.40;99.90;;;;;;5009861;28;20026;-72
2022/11/24 07:13:50;;;;;;;12.10;1.77;;;8.40;99.90;;;;;;4989048;28;20034;-73
2022/11/24 07:16:24;;;;;;;3.05;1.40;;;8.40;99.90;;;;;;5022568;28;20045;-72
2022/11/24 07:18:52;;;;;;;6.40;0.98;;;8.40;99.90;;;;;;4997909;28;20034;-72
2022/11/24 07:21:19;;;;;;;9.63;1.05;;;8.40;99.90;;;;;;5008769;28;20033;-72
2022/11/24 07:23:53;;;;;;;4.00;1.02;;;8.40;99.90;;;;;;5002036;28;20038;-73
2022/11/24 07:26:21;;;;;;;1.80;1.15;;;8.40;99.90;;;;;;4991294;28;20030;-72
2022/11/24 07:28:47;;;;;;;8.65;1.65;;;8.40;99.90;;;;;;4999042;28;20057;-72
2022/11/24 07:31:17;;;;;;;2.25;1.15;;;8.40;99.90;;;;;;5009449;28;20029;-73
2022/11/24 07:34:01;;;;;;;1.52;0.90;;;8.40;99.90;;;;;;5003446;28;20038;-72
2022/11/24 07:36:27;;;;;;;17.83;1.92;;;8.40;99.90;;;;;;4998590;28;20653;-72
2022/11/24 07:38:53;;;;;;;5.05;0.38;;;8.50;99.90;;;;;;5005809;28;20053;-72
2022/11/24 07:41:19;;;;;;;10.52;0.98;;;8.50;99.90;;;;;;5005413;28;20037;-72
2022/11/24 07:43:46;;;;;;;9.93;1.88;;;8.50;99.90;;;;;;5001791;28;20045;-72
2022/11/24 07:46:15;;;;;;;5.82;1.02;;;8.50;99.90;;;;;;5008195;28;20108;-72
2022/11/24 07:48:41;;;;;;;6.60;1.45;;;8.50;99.90;;;;;;5014174;28;20088;-72
2022/11/24 07:51:07;;;;;;;17.38;1.65;;;8.50;99.90;;;;;;5008826;28;20029;-72
2022/11/24 07:53:35;;;;;;;7.45;1.73;;;8.60;99.90;;;;;;5001697;28;20037;-73
2022/11/24 07:56:04;;;;;;;5.30;0.47;;;8.50;99.90;;;;;;5007995;28;20030;-73
2022/11/24 07:58:33;;;;;;;1.13;0.68;;;8.60;99.90;;;;;;5007738;28;20033;-73
2022/11/24 08:01:09;;;;;;;2.72;0.70;;;8.60;99.90;;;;;;5002361;28;20029;-73
2022/11/24 08:03:34;;;;;;;9.10;2.30;;;8.60;99.90;;;;;;4999042;28;20032;-73
2022/11/24 08:06:00;;;;;;;10.15;1.08;;;8.60;99.90;;;;;;5003649;28;20030;-73
2022/11/24 08:08:26;;;;;;;5.10;1.00;;;8.60;99.90;;;;;;5002037;28;20026;-72
2022/11/24 08:10:52;;;;;;;10.55;2.08;;;8.60;99.90;;;;;;5006217;28;20037;-73
2022/11/24 08:13:18;;;;;;;1.50;1.05;;;8.70;99.90;;;;;;5006984;28;20073;-72
2022/11/24 08:15:44;;;;;;;5.18;1.23;;;8.60;99.90;;;;;;5007233;28;20027;-73
2022/11/24 08:18:10;;;;;;;4.22;1.23;;;8.60;99.90;;;;;;5009158;28;20029;-71
2022/11/24 08:20:37;;;;;;;5.05;1.27;;;8.70;99.90;;;;;;5005893;28;20036;-74
2022/11/24 08:23:02;;;;;;;6.88;0.95;;;8.70;99.90;;;;;;5010919;28;20021;-72
2022/11/24 08:25:32;;;;;;;9.20;2.22;;;8.70;99.90;;;;;;5001245;28;20092;-73
2022/11/24 08:28:00;;;;;;;5.70;1.63;;;8.70;99.90;;;;;;5004701;28;20109;-73
2022/11/24 08:30:27;;;;;;;1.40;0.90;;;8.80;99.90;;;;;;5005458;28;20022;-73
2022/11/24 08:32:53;;;;;;;2.45;1.17;;;8.80;99.90;;;;;;5010982;28;20075;-74
2022/11/24 08:35:19;;;;;;;4.60;1.40;;;8.80;99.90;;;;;;5005068;28;20523;-73
2022/11/24 08:37:44;;;;;;;5.03;0.80;;;8.80;99.90;;;;;;5013300;28;20037;-73
2022/11/24 08:40:11;;;;;;;4.13;1.35;;;8.90;99.90;;;;;;5003749;28;20045;-73
2022/11/24 08:42:37;;;;;;;5.38;1.48;;;8.90;99.90;;;;;;5025026;28;20286;-73
2022/11/24 08:45:04;;;;;;;5.78;0.98;;;8.90;99.90;;;;;;5010336;28;20033;-75
2022/11/24 08:47:30;;;;;;;14.65;1.85;;;8.90;99.90;;;;;;5028577;28;20401;-70
2022/11/24 08:49:56;;;;;;;4.45;1.70;;;8.90;99.90;;;;;;5026770;28;20044;-78
2022/11/24 08:52:21;;;;;;;6.05;0.90;;;9.00;99.90;;;;;;5012324;28;20026;-73
2022/11/24 08:54:47;;;;;;;17.58;3.05;;;9.10;99.90;;;;;;5005568;28;20053;-70
2022/11/24 08:57:13;;;;;;;11.25;1.85;;;9.10;99.90;;;;;;5010786;28;20592;-72
2022/11/24 08:59:39;;;;;;;8.90;1.00;;;9.10;99.90;;;;;;5006168;28;20034;-73
2022/11/24 09:02:05;;;;;;;3.30;1.02;;;9.10;99.90;;;;;;5010819;28;20284;-72
2022/11/24 09:04:31;;;;;;;2.95;1.10;;;9.20;99.90;;;;;;5006126;28;20061;-74
2022/11/24 09:06:57;;;;;;;26.77;2.90;;;9.40;99.90;;;;;;5008593;28;20033;-73
2022/11/24 09:09:23;;;;;;;11.57;1.70;;;9.50;99.90;;;;;;5009086;28;20038;-73
2022/11/24 09:11:48;;;;;;;4.28;1.85;;;9.60;99.90;;;;;;5010829;28;20018;-73
2022/11/24 09:14:14;;;;;;;12.90;1.40;;;9.70;99.90;;;;;;5010708;28;20061;-73
2022/11/24 09:16:40;;;;;;;8.13;1.67;;;9.70;99.90;;;;;;5012038;28;20767;-73
2022/11/24 09:19:06;;;;;;;0.95;0.52;;;9.90;99.90;;;;;;5013022;28;20092;-74
2022/11/24 09:21:36;;;;;;;8.30;1.40;;;9.80;99.90;;;;;;5012184;28;20460;-73
2022/11/24 09:24:02;;;;;;;2.63;1.38;;;9.90;99.90;;;;;;5009882;28;20074;-74
2022/11/24 09:26:32;;;;;;;4.20;0.60;;;10.00;99.90;;;;;;5004559;28;20037;-74
2022/11/24 09:28:59;;;;;;;5.18;0.73;;;10.20;99.90;;;;;;5011366;28;20044;-74
2022/11/24 09:31:29;;;;;;;2.75;1.15;;;10.30;99.90;;;;;;5002467;28;20285;-73
2022/11/24 09:33:55;;;;;;;10.77;1.13;;;10.30;99.90;;;;;;5012675;28;20455;-74
2022/11/24 09:36:22;;;;;;;1.20;0.73;;;10.40;99.90;;;;;;5012198;28;20063;-73
2022/11/24 09:38:48;;;;;;;5.28;0.90;;;10.30;99.90;;;;;;5027312;28;20041;-74
2022/11/24 09:41:16;;;;;;;1.02;0.80;;;10.20;99.90;;;;;;5012082;28;20034;-74
2022/11/24 09:44:30;;;;;;;5.95;1.98;;;10.20;99.90;;;;;;5011945;28;20080;-73
2022/11/24 09:47:17;;;;;;;3.75;1.13;;;10.30;99.90;;;;;;4992903;28;20053;-73
2022/11/24 09:50:08;;;;;;;1.80;0.88;;;10.30;99.90;;;;;;4992084;28;20471;-73
2022/11/24 09:52:43;;;;;;;16.65;1.42;;;10.60;99.90;;;;;;4990854;28;20035;-73
2022/11/24 09:55:47;;;;;;;4.65;1.38;;;10.70;99.90;;;;;;4992768;28;20069;-73
2022/11/24 09:58:37;;;;;;;6.60;0.88;;;10.80;99.90;;;;;;4992453;28;20023;-74
2022/11/24 10:01:28;;;;;;;7.07;1.15;;;11.30;99.90;;;;;;5011508;28;20038;-74
2022/11/24 10:03:54;;;;;;;3.92;1.55;;;11.40;99.90;;;;;;5010651;28;20419;-73
2022/11/24 10:06:37;;;;;;;4.43;0.93;;;11.00;99.90;;;;;;5011741;28;20511;-72
2022/11/24 10:09:06;;;;;;;6.22;0.93;;;11.20;99.90;;;;;;5012133;28;20041;-72
2022/11/24 10:12:28;;;;;;;8.30;1.33;;;11.50;99.90;;;;;;5011622;28;20168;-73
2022/11/24 10:15:36;;;;;;;0.85;0.47;;;11.50;99.90;;;;;;4950812;29;20140;-72
2022/11/24 10:18:29;;;;;;;6.60;0.85;;;12.10;99.90;;;;;;4932054;29;20106;-74
2022/11/24 10:21:27;;;;;;;1.00;0.73;;;12.60;99.90;;;;;;4992060;28;20041;-71
2022/11/24 10:24:21;;;;;;;1.85;0.52;;;13.50;99.90;;;;;;4969056;28;20053;-71
2022/11/24 10:27:15;;;;;;;2.63;0.88;;;12.40;99.90;;;;;;4990045;28;20022;-73
2022/11/24 10:29:42;;;;;;;2.85;0.90;;;12.30;99.90;;;;;;4992734;28;20026;-74
2022/11/24 10:32:17;;;;;;;4.22;0.80;;;12.90;99.90;;;;;;4991402;28;20508;-74
2022/11/24 10:34:46;;;;;;;1.55;0.47;;;12.10;99.90;;;;;;4990496;28;20053;-74
2022/11/24 10:37:36;;;;;;;10.02;1.00;;;12.20;99.90;;;;;;4990350;28;20065;-74
2022/11/24 10:40:16;;;;;;;2.97;0.45;;;11.80;99.90;;;;;;4990734;28;20114;-74
2022/11/24 10:42:42;;;;;;;3.80;1.42;;;12.00;99.90;;;;;;4991317;28;20441;-73
2022/11/24 10:45:15;;;;;;;4.43;0.88;;;12.60;99.90;;;;;;4993885;28;20387;-73
2022/11/24 10:47:43;;;;;;;2.95;0.88;;;13.10;99.90;;;;;;4990539;28;20394;-73
2022/11/24 10:50:32;;;;;;;6.70;0.57;;;13.30;99.90;;;;;;4991336;28;20499;-74
2022/11/24 10:53:29;;;;;;;6.13;0.60;;;13.70;99.90;;;;;;4989946;28;20047;-73
2022/11/24 10:55:57;;;;;;;3.97;0.55;;;13.20;99.90;;;;;;4996857;28;20521;-74
2022/11/24 10:58:36;;;;;;;2.80;0.82;;;13.50;99.90;;;;;;5010956;28;20115;-71
2022/11/24 11:01:26;;;;;;;1.33;0.40;;;13.80;99.90;;;;;;5010747;28;20485;-73
2022/11/24 11:03:56;;;;;;;4.55;0.70;;;14.40;99.90;;;;;;5006873;28;20073;-74
2022/11/24 11:06:31;;;;;;;1.98;0.80;;;15.60;99.90;;;;;;4998442;28;20033;-69
2022/11/24 11:09:05;;;;;;;4.10;0.55;;;14.40;99.90;;;;;;4993929;28;20044;-67
2022/11/24 11:11:31;;;;;;;2.85;1.42;;;14.90;99.90;;;;;;5006535;28;20428;-71
2022/11/24 11:14:03;;;;;;;5.03;0.60;;;14.80;99.90;;;;;;5006085;28;20370;-70
2022/11/24 11:16:54;;;;;;;4.35;1.00;;;15.50;99.90;;;;;;5000161;28;20042;-69
2022/11/24 11:19:37;;;;;;;3.70;0.93;;;15.10;99.90;;;;;;5006697;28;20037;-69
2022/11/24 11:22:18;;;;;;;2.10;0.40;;;16.20;99.90;;;;;;5009258;28;20065;-69
2022/11/24 11:24:46;;;;;;;6.72;1.08;;;17.30;99.90;;;;;;5010514;28;20481;-71
2022/11/24 11:27:23;;;;;;;2.40;1.05;;;15.90;99.90;;;;;;5006069;28;20394;-69
2022/11/24 11:29:50;;;;;;;6.63;1.45;;;15.80;99.90;;;;;;5017925;28;20101;-74
2022/11/24 11:32:25;;;;;;;2.80;1.10;;;16.60;99.90;;;;;;5000616;28;20118;-70
2022/11/24 11:34:55;;;;;;;1.13;0.50;;;16.30;99.90;;;;;;5005576;28;20056;-69
2022/11/24 11:37:27;;;;;;;4.68;0.50;;;17.80;99.90;;;;;;5019833;28;20046;-70
2022/11/24 11:39:54;;;;;;;4.18;0.90;;;16.50;99.90;;;;;;5022903;28;20046;-71
2022/11/24 11:42:40;;;;;;;4.82;0.80;;;16.90;99.90;;;;;;5007366;28;20041;-71
2022/11/24 11:45:12;;;;;;;4.55;0.85;;;15.30;99.90;;;;;;5002342;28;20044;-71
2022/11/24 11:47:43;;;;;;;3.20;1.10;;;13.70;99.90;;;;;;5011161;28;20042;-73
2022/11/24 11:50:18;;;;;;;;;;;13.40;99.90;;;;;;4998671;28;20036;-71
2022/11/24 11:53:12;;;;;;;1.13;0.85;;;13.50;99.90;;;;;;5004004;28;19913;-72
2022/11/24 11:56:13;;;;;;;4.88;0.93;;;13.30;99.90;;;;;;5005818;28;20048;-71
2022/11/24 11:59:05;;;;;;;3.92;0.98;;;12.40;99.90;;;;;;5007955;28;20041;-72
2022/11/24 12:02:08;;;;;;;4.53;0.80;;;12.40;99.90;;;;;;5000710;28;20509;-71
2022/11/24 12:04:58;;;;;;;1.55;0.73;;;13.00;99.90;;;;;;4998247;28;20062;-70
2022/11/24 12:07:48;;;;;;;0.73;0.43;;;12.60;99.90;;;;;;5002502;28;20034;-71
2022/11/24 12:10:37;;;;;;;3.50;0.55;;;12.60;99.90;;;;;;5001769;28;20351;-71
2022/11/24 12:13:49;;;;;;;4.55;0.68;;;12.60;99.90;;;;;;5006677;28;20033;-70
2022/11/24 12:16:40;;;;;;;6.80;1.00;;;12.50;99.90;;;;;;5007792;28;20793;-70
2022/11/24 12:19:56;;;;;;;1.60;0.90;;;12.30;99.90;;;;;;5001547;28;20096;-71
2022/11/24 12:22:40;;;;;;;1.42;0.50;;;12.30;99.90;;;;;;4997645;28;20145;-71
2022/11/24 12:25:23;;;;;;;0.77;0.40;;;12.30;99.90;;;;;;5000413;28;20033;-70
2022/11/24 12:28:18;;;;;;;19.08;1.52;;;12.40;99.90;;;;;;5018752;28;20025;-70
2022/11/24 12:31:16;;;;;;;2.08;0.88;;;12.10;99.90;;;;;;5005041;28;20033;-70
2022/11/24 12:33:48;;;;;;;3.60;0.73;;;12.40;99.90;;;;;;4998562;28;20085;-69
2022/11/24 12:36:55;;;;;;;12.95;1.13;;;12.30;99.90;;;;;;5008152;28;20037;-69
2022/11/24 12:39:51;;;;;;;1.20;0.60;;;12.20;99.90;;;;;;4938346;28;20073;-70
2022/11/24 12:42:29;;;;;;;1.77;0.65;;;12.20;99.90;;;;;;5016524;28;20497;-70
2022/11/24 12:45:04;;;;;;;6.05;1.52;;;12.40;99.90;;;;;;5001529;28;20046;-69
2022/11/24 12:47:59;;;;;;;0.20;0.20;;;11.90;99.90;;;;;;5001893;28;20163;-70
2022/11/24 12:50:28;;;;;;;2.78;0.55;;;11.80;99.90;;;;;;5017641;28;20030;-69
2022/11/24 12:53:18;;;;;;;0.90;0.68;;;11.60;99.90;;;;;;5006360;28;20029;-69
2022/11/24 12:55:45;;;;;;;3.40;1.15;;;11.40;99.90;;;;;;5007440;28;20053;-69
2022/11/24 12:58:38;;;;;;;0.52;0.45;;;11.30;99.90;;;;;;5021591;28;20126;-71
2022/11/24 13:01:20;;;;;;;6.03;0.90;;;11.30;99.90;;;;;;4995284;28;20473;-70
2022/11/24 13:04:23;;;;;;;6.07;1.60;;;11.30;99.90;;;;;;5012531;28;20042;-71
2022/11/24 13:07:03;;;;;;;18.83;1.95;;;11.50;99.90;;;;;;5005064;28;20029;-71
2022/11/24 13:09:28;;;;;;;2.53;1.80;;;11.60;99.90;;;;;;5001574;28;20117;-71
2022/11/24 13:12:11;;;;;;;7.05;0.85;;;11.80;99.90;;;;;;5003879;28;20465;-70
2022/11/24 13:14:41;;;;;;;10.80;1.00;;;12.00;99.90;;;;;;5027256;28;20034;-73
2022/11/24 13:17:33;;;;;;;1.88;0.63;;;12.30;99.90;;;;;;5012148;28;20033;-71
2022/11/24 13:20:19;;;;;;;2.03;1.02;;;12.90;99.90;;;;;;5003600;28;20041;-71
2022/11/24 13:23:04;;;;;;;3.00;0.88;;;13.00;99.90;;;;;;5012421;28;20033;-70
2022/11/24 13:25:35;;;;;;;1.88;0.63;;;13.60;99.90;;;;;;5020559;28;20040;-71
2022/11/24 13:28:05;;;;;;;1.47;0.30;;;13.90;99.90;;;;;;5003377;28;20135;-70
2022/11/24 13:30:34;;;;;;;1.75;0.68;;;14.50;99.90;;;;;;5004965;28;20285;-69
2022/11/24 13:33:11;;;;;;;7.45;1.27;;;14.20;99.90;;;;;;5011138;28;20046;-70
2022/11/24 13:36:00;;;;;;;3.80;1.42;;;13.80;99.90;;;;;;5006876;28;20507;-69
2022/11/24 13:38:44;;;;;;;2.83;1.13;;;13.40;99.90;;;;;;5007566;28;20402;-70
2022/11/24 13:41:33;;;;;;;1.60;0.70;;;12.80;99.90;;;;;;5011121;28;20079;-70
2022/11/24 13:44:13;;;;;;;3.03;0.88;;;12.60;99.90;;;;;;5001085;28;20165;-70
2022/11/24 13:46:57;;;;;;;1.90;0.70;;;12.70;99.90;;;;;;5011088;28;20366;-70
2022/11/24 13:49:23;;;;;;;6.25;1.13;;;12.60;99.90;;;;;;5000971;28;20044;-70
2022/11/24 13:51:56;;;;;;;9.13;1.42;;;12.50;99.90;;;;;;4992937;28;20560;-70
2022/11/24 13:54:27;;;;;;;1.17;0.50;;;12.30;99.90;;;;;;5003375;28;20034;-70
2022/11/24 13:57:35;;;;;;;5.00;0.52;;;12.20;99.90;;;;;;5026548;28;20421;-70
2022/11/24 14:00:04;;;;;;;1.38;0.77;;;12.20;99.90;;;;;;4999614;28;20038;-70
2022/11/24 14:02:33;;;;;;;9.13;1.17;;;12.00;99.90;;;;;;4999140;28;20392;-71